Time;durP1;ratioP1;P1;durP2;ratioP2;P2;SDS_P1;SDS_P2;PMS_P1;PMS_P2;Temp;Humidity;BMP_temperature;BMP_pressure;BME280_temperature;BME280_humidity;BME280_pressure;Samples;Min_cycle;Max_cycle;Signal;HPM_P1;HPM_P2
2022/05/10 00:00:57;;;;;;;28.77;26.63;;;14.20;99.90;;;;;;4975476;28;20495;-73
2022/05/10 00:03:32;;;;;;;27.67;25.40;;;14.20;99.90;;;;;;4975770;28;20455;-73
2022/05/10 00:05:59;;;;;;;27.67;25.40;;;14.20;99.90;;;;;;4975059;28;20829;-73
2022/05/10 00:08:25;;;;;;;27.83;25.73;;;14.10;99.90;;;;;;4975567;28;20463;-73
2022/05/10 00:10:54;;;;;;;27.80;25.70;;;14.10;99.90;;;;;;4975299;28;20452;-73
2022/05/10 00:13:21;;;;;;;29.63;27.43;;;14.10;99.90;;;;;;4974900;28;20538;-73
2022/05/10 00:15:48;;;;;;;30.13;27.83;;;14.00;99.90;;;;;;4975004;28;20456;-73
2022/05/10 00:18:17;;;;;;;31.23;28.50;;;14.00;99.90;;;;;;4975121;28;20463;-74
2022/05/10 00:20:45;;;;;;;30.47;28.07;;;14.00;99.90;;;;;;4975055;28;20520;-74
2022/05/10 00:23:12;;;;;;;30.20;27.90;;;14.00;99.90;;;;;;4975060;28;20451;-74
2022/05/10 00:25:39;;;;;;;31.60;29.23;;;14.00;99.90;;;;;;4974971;28;20487;-74
2022/05/10 00:28:07;;;;;;;30.53;28.17;;;14.00;99.90;;;;;;4974938;28;20447;-74
2022/05/10 00:30:34;;;;;;;31.60;28.53;;;13.90;99.90;;;;;;4974930;28;20452;-75
2022/05/10 00:33:01;;;;;;;30.97;28.47;;;13.90;99.90;;;;;;4975038;28;20459;-75
2022/05/10 00:35:31;;;;;;;29.53;27.03;;;13.90;99.90;;;;;;4974771;28;20456;-74
2022/05/10 00:38:01;;;;;;;29.97;27.77;;;13.90;99.90;;;;;;4974662;28;20812;-75
2022/05/10 00:40:34;;;;;;;29.97;27.73;;;13.90;99.90;;;;;;4974632;28;20480;-74
2022/05/10 00:43:07;;;;;;;32.17;29.77;;;13.90;99.90;;;;;;4974605;28;20460;-74
2022/05/10 00:45:53;;;;;;;30.97;28.73;;;13.90;99.90;;;;;;4974888;28;20463;-74
2022/05/10 00:48:29;;;;;;;31.93;29.53;;;13.80;99.90;;;;;;4974270;28;21300;-74
2022/05/10 00:51:00;;;;;;;30.90;28.33;;;13.80;99.90;;;;;;4974559;28;20451;-74
2022/05/10 00:53:28;;;;;;;29.03;26.90;;;13.80;99.90;;;;;;4974511;28;20460;-74
2022/05/10 00:55:59;;;;;;;32.23;29.77;;;13.80;99.90;;;;;;4974531;28;20460;-75
2022/05/10 00:58:32;;;;;;;32.30;29.47;;;13.80;99.90;;;;;;4974664;28;20847;-73
2022/05/10 04:02:21;;;;;;;35.20;32.20;;;12.30;99.90;;;;;;5117187;23;21209;-73
2022/05/10 04:04:47;;;;;;;34.40;31.63;;;12.30;99.90;;;;;;4985344;28;20494;-75
2022/05/10 04:07:15;;;;;;;36.63;33.47;;;12.30;99.90;;;;;;4992356;28;20493;-73
2022/05/10 04:09:42;;;;;;;35.90;33.07;;;12.30;99.90;;;;;;4999433;28;20462;-73
2022/05/10 04:12:10;;;;;;;34.60;31.80;;;12.40;99.90;;;;;;4994353;28;20427;-74
2022/05/10 04:14:36;;;;;;;34.13;31.30;;;12.40;99.90;;;;;;4982581;28;20443;-74
2022/05/10 04:17:04;;;;;;;33.00;30.50;;;12.40;99.90;;;;;;4982360;28;20446;-75
2022/05/10 04:19:32;;;;;;;34.33;31.73;;;12.40;99.90;;;;;;4984165;28;20798;-75
2022/05/10 04:21:59;;;;;;;35.50;32.30;;;12.50;99.90;;;;;;4982680;28;20490;-73
2022/05/10 04:24:25;;;;;;;34.03;31.10;;;12.50;99.90;;;;;;4983396;28;20506;-74
2022/05/10 04:26:53;;;;;;;35.50;32.70;;;12.50;99.90;;;;;;4981514;28;20440;-73
2022/05/10 04:29:19;;;;;;;34.70;31.93;;;12.50;99.90;;;;;;4982636;28;20810;-73
2022/05/10 04:31:46;;;;;;;34.70;31.90;;;12.50;99.90;;;;;;4983442;28;20436;-74
2022/05/10 04:34:13;;;;;;;33.67;30.90;;;12.60;99.90;;;;;;4983558;28;21379;-73
2022/05/10 04:36:41;;;;;;;34.30;31.23;;;12.60;99.90;;;;;;4982613;28;20882;-73
2022/05/10 04:39:08;;;;;;;35.20;32.50;;;12.60;99.90;;;;;;4981502;28;20448;-73
2022/05/10 04:41:36;;;;;;;34.33;31.00;;;12.90;99.90;;;;;;4981653;28;20471;-74
2022/05/10 04:44:05;;;;;;;30.43;28.20;;;13.20;99.90;;;;;;4982200;28;20800;-73
2022/05/10 04:46:35;;;;;;;33.13;30.67;;;13.50;99.90;;;;;;4983353;28;20443;-73
2022/05/10 04:49:02;;;;;;;31.53;28.90;;;13.70;99.90;;;;;;4982751;28;20447;-74
2022/05/10 04:51:29;;;;;;;32.00;29.60;;;13.90;99.90;;;;;;4981393;28;20440;-74
2022/05/10 04:53:57;;;;;;;33.43;29.97;;;14.10;99.90;;;;;;4983106;28;20554;-75
2022/05/10 04:56:25;;;;;;;29.63;27.40;;;14.30;99.90;;;;;;4983007;28;20459;-76
2022/05/10 04:58:54;;;;;;;29.40;27.17;;;14.40;99.90;;;;;;4980563;28;20455;-76
2022/05/10 05:01:25;;;;;;;31.23;28.53;;;14.60;99.90;;;;;;4962387;28;20487;-72
2022/05/10 05:03:55;;;;;;;29.63;27.17;;;14.60;99.90;;;;;;4961922;28;20452;-72
2022/05/10 05:06:23;;;;;;;28.87;26.87;;;14.70;99.90;;;;;;4955554;28;20572;-74
2022/05/10 05:08:50;;;;;;;28.77;26.37;;;14.90;99.90;;;;;;4960432;28;20483;-73
2022/05/10 05:11:18;;;;;;;26.97;24.90;;;15.10;99.90;;;;;;4967885;28;20475;-74
2022/05/10 05:13:45;;;;;;;28.80;26.80;;;15.20;99.90;;;;;;4963636;28;20452;-74
2022/05/10 05:16:12;;;;;;;27.67;25.77;;;15.20;99.90;;;;;;4962211;28;20458;-74
2022/05/10 05:18:39;;;;;;;27.10;24.57;;;15.50;99.90;;;;;;4962353;28;20444;-74
2022/05/10 05:21:05;;;;;;;24.83;22.70;;;15.70;99.90;;;;;;4963042;28;20883;-74
2022/05/10 05:23:32;;;;;;;25.90;24.00;;;15.70;99.90;;;;;;4961854;28;20445;-73
2022/05/10 05:25:59;;;;;;;25.63;23.83;;;15.70;99.90;;;;;;4963364;28;20499;-73
2022/05/10 05:28:27;;;;;;;26.87;24.83;;;15.70;99.90;;;;;;4963787;28;20462;-73
2022/05/10 05:30:54;;;;;;;27.77;24.87;;;15.70;99.90;;;;;;4961819;28;20929;-75
2022/05/10 05:33:20;;;;;;;26.90;25.00;;;15.90;99.90;;;;;;4961297;28;20447;-73
2022/05/10 05:35:47;;;;;;;26.80;24.63;;;15.90;99.90;;;;;;4963109;28;20448;-74
2022/05/10 05:38:14;;;;;;;28.03;25.83;;;15.90;99.90;;;;;;4967786;28;20977;-73
2022/05/10 05:40:41;;;;;;;27.90;25.70;;;16.00;99.90;;;;;;4972895;28;20455;-74
2022/05/10 05:43:08;;;;;;;26.83;24.43;;;16.30;99.90;;;;;;4972862;28;20452;-75
2022/05/10 05:45:37;;;;;;;24.80;23.03;;;16.40;99.90;;;;;;4972988;28;20463;-76
2022/05/10 05:48:04;;;;;;;25.33;23.63;;;16.80;99.90;;;;;;4972803;28;20465;-75
2022/05/10 05:50:31;;;;;;;26.40;24.50;;;17.10;99.90;;;;;;4973529;28;20971;-75
2022/05/10 05:53:00;;;;;;;24.90;23.23;;;17.20;99.90;;;;;;4972975;28;20888;-74
2022/05/10 05:55:26;;;;;;;27.43;25.30;;;17.40;99.90;;;;;;4973363;28;20456;-75
2022/05/10 05:57:53;;;;;;;25.40;23.27;;;17.60;99.90;;;;;;4970885;28;20464;-74
2022/05/10 06:00:23;;;;;;;25.70;23.80;;;17.60;99.90;;;;;;4970329;28;20471;-74
2022/05/10 06:02:51;;;;;;;26.07;24.20;;;17.70;99.90;;;;;;4972296;28;20582;-73
2022/05/10 06:05:18;;;;;;;25.50;23.57;;;17.70;99.90;;;;;;4972279;28;20451;-74
2022/05/10 06:07:45;;;;;;;26.77;24.57;;;17.50;99.90;;;;;;4972498;28;20452;-74
2022/05/10 06:10:13;;;;;;;26.30;24.30;;;17.60;99.90;;;;;;4972691;28;20821;-74
2022/05/10 06:12:41;;;;;;;26.30;24.17;;;17.70;99.90;;;;;;4972015;28;20937;-76
2022/05/10 06:15:10;;;;;;;25.37;23.57;;;17.90;99.90;;;;;;4972164;28;20460;-75
2022/05/10 06:17:38;;;;;;;26.37;24.27;;;18.30;99.90;;;;;;4971905;28;20447;-73
2022/05/10 06:20:09;;;;;;;26.00;24.20;;;18.30;99.90;;;;;;4971975;28;20463;-76
2022/05/10 06:22:37;;;;;;;26.00;23.77;;;18.20;99.90;;;;;;4972152;28;20566;-73
2022/05/10 06:25:05;;;;;;;25.43;23.63;;;18.40;99.90;;;;;;4971839;28;20861;-73
2022/05/10 06:27:31;;;;;;;25.13;23.50;;;18.50;99.90;;;;;;4971952;28;20455;-73
2022/05/10 06:29:59;;;;;;;25.80;24.17;;;18.40;99.90;;;;;;4972080;28;20462;-73
2022/05/10 06:32:27;;;;;;;24.73;23.13;;;18.50;99.90;;;;;;4971895;28;20451;-74
2022/05/10 06:34:55;;;;;;;25.00;23.23;;;18.60;99.90;;;;;;4971860;28;21092;-76
2022/05/10 06:40:10;;;;;;;27.43;25.53;;;19.10;99.90;;;;;;4972046;28;20434;-75
2022/05/10 06:42:37;;;;;;;26.00;24.30;;;19.00;99.90;;;;;;4972155;28;20502;-74
2022/05/10 06:45:08;;;;;;;24.93;23.43;;;19.20;99.90;;;;;;4959429;28;20455;-76
2022/05/10 06:47:36;;;;;;;25.33;23.73;;;19.40;99.90;;;;;;4960466;28;20770;-75
2022/05/10 06:50:03;;;;;;;23.70;21.80;;;19.50;99.90;;;;;;4959772;28;20857;-75
2022/05/10 06:52:31;;;;;;;25.47;23.73;;;19.60;99.90;;;;;;4960076;28;20444;-76
2022/05/10 06:54:58;;;;;;;25.90;23.90;;;19.80;99.90;;;;;;4960775;28;20941;-75
2022/05/10 06:57:24;;;;;;;26.70;24.73;;;20.10;99.90;;;;;;4961438;28;20554;-75
2022/05/10 06:59:53;;;;;;;24.80;23.30;;;20.20;99.90;;;;;;4959416;28;20876;-75
2022/05/10 07:02:19;;;;;;;24.87;23.27;;;20.60;99.90;;;;;;4959503;28;20832;-74
2022/05/10 07:04:46;;;;;;;24.73;23.23;;;20.90;99.90;;;;;;4961158;28;21194;-74
2022/05/10 07:07:13;;;;;;;26.67;24.60;;;21.00;99.90;;;;;;4960005;28;20476;-75
2022/05/10 07:09:41;;;;;;;25.33;23.73;;;20.80;99.90;;;;;;4959918;28;20502;-74
2022/05/10 07:12:08;;;;;;;26.40;24.57;;;21.00;99.90;;;;;;4961112;28;20444;-75
2022/05/10 07:14:35;;;;;;;22.67;21.30;;;21.50;99.90;;;;;;4961332;28;20452;-75
2022/05/10 07:17:02;;;;;;;25.60;24.00;;;21.80;99.90;;;;;;4960894;28;20452;-76
2022/05/10 07:19:28;;;;;;;23.93;22.53;;;22.20;99.90;;;;;;4959431;28;20449;-76
2022/05/10 07:21:55;;;;;;;23.73;22.13;;;22.20;99.90;;;;;;4960368;28;20498;-75
2022/05/10 07:24:22;;;;;;;24.63;22.50;;;22.30;99.90;;;;;;4960712;28;20781;-76
2022/05/10 07:26:50;;;;;;;23.13;21.73;;;22.50;99.50;;;;;;4961854;28;20541;-74
2022/05/10 07:29:17;;;;;;;24.03;22.53;;;22.50;99.20;;;;;;4960112;28;20937;-75
2022/05/10 07:31:44;;;;;;;24.70;22.70;;;22.80;98.70;;;;;;4961288;28;20499;-75
2022/05/10 07:34:13;;;;;;;23.20;21.80;;;22.80;98.70;;;;;;4958578;28;20463;-75
2022/05/10 07:36:40;;;;;;;25.37;23.30;;;22.90;98.10;;;;;;4960937;28;20467;-77
2022/05/10 07:39:09;;;;;;;25.13;22.90;;;23.10;98.10;;;;;;4959131;28;20453;-75
2022/05/10 07:41:36;;;;;;;23.10;21.80;;;23.00;98.00;;;;;;4959046;28;20695;-75
2022/05/10 07:44:05;;;;;;;25.90;24.07;;;23.00;98.00;;;;;;4959168;28;20444;-74
2022/05/10 07:46:32;;;;;;;23.77;22.43;;;23.10;98.20;;;;;;4959243;28;20504;-74
2022/05/10 07:48:59;;;;;;;24.87;23.37;;;23.50;97.60;;;;;;4960047;28;20447;-74
2022/05/10 07:51:26;;;;;;;24.87;23.30;;;23.50;97.20;;;;;;4961113;28;20472;-75
2022/05/10 07:53:53;;;;;;;24.20;22.80;;;23.80;96.70;;;;;;4960509;28;20447;-76
2022/05/10 07:56:20;;;;;;;25.50;23.60;;;23.80;96.50;;;;;;4973328;28;21193;-76
2022/05/10 07:58:47;;;;;;;23.40;22.00;;;23.90;96.30;;;;;;4981871;28;20487;-75
2022/05/10 08:01:15;;;;;;;23.40;21.80;;;24.00;95.90;;;;;;4974228;28;20486;-74
2022/05/10 08:03:43;;;;;;;23.77;22.27;;;24.30;95.60;;;;;;4974895;28;20964;-74
2022/05/10 08:06:10;;;;;;;21.67;20.37;;;24.70;94.80;;;;;;4974425;28;20471;-76
2022/05/10 08:08:36;;;;;;;21.87;20.57;;;24.80;94.60;;;;;;4973972;28;20686;-75
2022/05/10 08:11:05;;;;;;;22.17;20.80;;;25.30;94.30;;;;;;4970891;28;20547;-75
2022/05/10 08:13:33;;;;;;;22.83;21.33;;;25.90;93.20;;;;;;4974176;28;20448;-76
2022/05/10 08:16:00;;;;;;;22.73;21.43;;;25.80;92.80;;;;;;4974216;28;20466;-76
2022/05/10 08:18:29;;;;;;;22.43;21.23;;;25.50;93.20;;;;;;4974251;28;20520;-76
2022/05/10 08:20:59;;;;;;;22.10;20.63;;;25.50;93.40;;;;;;4973982;28;20463;-74
2022/05/10 08:23:28;;;;;;;22.70;21.47;;;25.90;92.80;;;;;;4973860;28;20490;-77
2022/05/10 08:25:56;;;;;;;24.23;22.63;;;26.60;91.50;;;;;;4973927;28;20462;-76
2022/05/10 08:28:24;;;;;;;24.67;23.23;;;26.00;91.60;;;;;;4973916;28;20456;-76
2022/05/10 08:30:51;;;;;;;22.80;21.40;;;25.50;92.70;;;;;;4973586;28;20459;-77
2022/05/10 08:33:19;;;;;;;22.77;21.37;;;25.00;93.70;;;;;;4973859;28;20942;-76
2022/05/10 08:35:48;;;;;;;22.53;21.33;;;25.40;93.10;;;;;;4972201;28;20447;-76
2022/05/10 08:38:15;;;;;;;21.53;20.07;;;25.80;92.40;;;;;;4973973;28;20869;-76
2022/05/10 08:40:46;;;;;;;22.87;21.33;;;26.20;92.10;;;;;;4973975;28;20462;-75
2022/05/10 08:43:20;;;;;;;23.07;21.80;;;26.50;91.30;;;;;;4973967;28;20491;-77
2022/05/10 08:45:47;;;;;;;22.70;21.43;;;26.90;90.80;;;;;;4973829;28;20463;-76
2022/05/10 08:48:13;;;;;;;21.20;20.10;;;26.50;91.00;;;;;;4973930;28;20462;-77
2022/05/10 08:50:43;;;;;;;21.77;20.57;;;26.10;91.80;;;;;;4973409;28;20455;-76
2022/05/10 08:53:12;;;;;;;21.57;20.27;;;26.20;91.90;;;;;;4973855;28;20454;-75
2022/05/10 08:55:45;;;;;;;23.30;22.00;;;26.60;91.20;;;;;;4973809;28;20470;-76
2022/05/10 08:58:35;;;;;;;21.63;20.37;;;26.70;91.00;;;;;;4975271;28;20455;-76
2022/05/10 09:01:07;;;;;;;22.27;20.97;;;27.10;90.20;;;;;;4991970;28;20488;-76
2022/05/10 09:03:40;;;;;;;23.00;21.33;;;28.00;87.80;;;;;;4991654;28;20487;-75
2022/05/10 09:06:16;;;;;;;22.20;20.80;;;28.10;85.80;;;;;;4984447;28;21139;-76
2022/05/10 09:08:55;;;;;;;21.33;20.23;;;27.80;86.40;;;;;;4972337;28;20863;-76
2022/05/10 09:11:23;;;;;;;22.23;20.97;;;28.20;85.00;;;;;;4973532;28;20447;-76
2022/05/10 09:13:50;;;;;;;22.17;20.60;;;28.40;84.30;;;;;;4972813;28;20445;-75
2022/05/10 09:16:16;;;;;;;23.47;22.23;;;27.90;84.80;;;;;;4972807;28;20968;-76
2022/05/10 09:18:53;;;;;;;20.53;19.10;;;28.00;84.30;;;;;;4972989;28;20474;-75
2022/05/10 09:21:23;;;;;;;21.20;20.10;;;28.00;83.40;;;;;;4972663;28;20455;-77
2022/05/10 09:24:11;;;;;;;20.07;19.10;;;28.40;82.80;;;;;;4972791;28;20518;-76
2022/05/10 09:26:40;;;;;;;20.87;19.77;;;29.30;79.90;;;;;;4972827;28;20467;-76
2022/05/10 09:29:11;;;;;;;20.30;19.00;;;29.10;76.80;;;;;;4972608;28;20466;-76
2022/05/10 09:37:18;;;;;;;19.40;17.90;;;30.70;70.30;;;;;;4972602;28;20490;-74
2022/05/10 09:40:00;;;;;;;19.80;18.70;;;30.50;71.30;;;;;;4972577;28;20456;-76
2022/05/10 09:42:29;;;;;;;19.43;18.37;;;31.70;68.30;;;;;;4972451;28;20498;-75
2022/05/10 09:45:03;;;;;;;20.57;19.47;;;33.00;62.00;;;;;;4972179;28;20662;-76
2022/05/10 09:47:30;;;;;;;19.87;18.77;;;33.40;59.20;;;;;;4972682;28;20816;-75
2022/05/10 09:50:12;;;;;;;18.90;18.00;;;34.20;56.60;;;;;;4972573;28;20454;-75
2022/05/10 09:52:39;;;;;;;18.40;17.50;;;34.00;54.30;;;;;;4972193;28;20451;-75
2022/05/10 09:55:10;;;;;;;19.67;18.57;;;33.20;52.80;;;;;;4972141;28;20526;-75
2022/05/10 09:57:39;;;;;;;19.33;18.43;;;32.30;55.90;;;;;;4972175;28;20828;-75
2022/05/10 10:00:07;;;;;;;21.40;20.30;;;31.30;58.10;;;;;;4971822;28;20479;-75
2022/05/10 10:02:36;;;;;;;20.27;19.27;;;31.70;58.20;;;;;;4971435;28;20500;-76
2022/05/10 10:05:22;;;;;;;19.83;18.83;;;32.40;57.20;;;;;;4971997;28;21308;-76
2022/05/10 10:07:50;;;;;;;18.33;17.20;;;32.40;54.00;;;;;;4971725;28;20452;-75
2022/05/10 10:10:24;;;;;;;18.10;17.13;;;32.50;53.80;;;;;;4971778;28;21021;-76
2022/05/10 10:12:51;;;;;;;18.13;17.23;;;33.20;52.90;;;;;;4971697;28;20442;-75
2022/05/10 10:15:24;;;;;;;18.33;17.43;;;32.40;53.50;;;;;;4971641;28;20475;-75
2022/05/10 10:17:54;;;;;;;19.63;18.53;;;31.60;54.60;;;;;;4971695;28;20570;-76
2022/05/10 10:20:30;;;;;;;17.67;16.77;;;31.70;54.30;;;;;;4971114;28;20464;-76
2022/05/10 10:23:00;;;;;;;17.63;16.73;;;31.60;53.70;;;;;;4971867;28;20586;-76
2022/05/10 10:25:33;;;;;;;17.50;16.80;;;30.90;54.70;;;;;;4971857;28;20822;-75
2022/05/10 10:28:04;;;;;;;17.70;16.80;;;31.00;54.50;;;;;;4971758;28;20514;-76
2022/05/10 10:30:36;;;;;;;19.30;18.47;;;32.30;54.10;;;;;;4971699;28;20459;-74
2022/05/10 10:33:09;;;;;;;18.83;17.73;;;33.30;51.40;;;;;;4971670;28;20506;-76
2022/05/10 10:35:41;;;;;;;17.10;16.20;;;31.50;52.90;;;;;;4971606;28;20443;-76
2022/05/10 10:38:17;;;;;;;17.93;17.13;;;30.10;53.10;;;;;;4971407;28;20949;-76
2022/05/10 10:40:52;;;;;;;18.13;17.43;;;30.30;52.80;;;;;;4971814;28;20447;-74
2022/05/10 10:43:28;;;;;;;18.10;17.17;;;31.00;52.40;;;;;;4969568;28;20490;-75
2022/05/10 10:46:02;;;;;;;18.27;17.47;;;32.40;52.30;;;;;;4971590;28;20455;-75
2022/05/10 10:48:33;;;;;;;18.83;17.83;;;32.50;50.40;;;;;;4971965;28;20490;-75
2022/05/10 10:51:00;;;;;;;17.73;16.93;;;31.60;52.10;;;;;;4971512;28;20452;-75
2022/05/10 10:53:29;;;;;;;17.70;17.00;;;31.50;51.60;;;;;;4971873;28;20781;-75
2022/05/10 10:56:17;;;;;;;17.17;16.30;;;31.40;51.40;;;;;;4971506;28;20848;-74
2022/05/10 10:58:59;;;;;;;16.90;16.20;;;30.90;51.30;;;;;;4971621;28;20459;-76
2022/05/10 11:01:40;;;;;;;18.20;17.30;;;30.30;52.30;;;;;;4971184;28;20961;-75
2022/05/10 11:04:19;;;;;;;17.90;16.90;;;29.80;54.10;;;;;;4971195;28;21056;-74
2022/05/10 11:06:51;;;;;;;18.33;17.20;;;30.40;52.00;;;;;;4969465;28;20514;-74
2022/05/10 11:09:35;;;;;;;17.27;16.20;;;31.10;51.00;;;;;;4971148;28;20455;-74
2022/05/10 11:12:26;;;;;;;18.10;17.20;;;31.00;49.70;;;;;;4969332;28;20451;-74
2022/05/10 11:15:06;;;;;;;18.20;17.40;;;32.10;50.00;;;;;;4970811;28;20455;-74
2022/05/10 11:17:44;;;;;;;17.13;16.33;;;32.80;48.10;;;;;;4970941;28;20456;-75
2022/05/10 11:20:22;;;;;;;18.40;17.33;;;34.10;45.00;;;;;;4971184;28;20830;-75
2022/05/10 11:22:56;;;;;;;17.43;16.60;;;32.90;44.70;;;;;;4970756;28;20487;-76
2022/05/10 11:25:33;;;;;;;17.67;16.80;;;31.10;47.50;;;;;;4971007;28;20456;-75
2022/05/10 11:28:28;;;;;;;17.00;16.20;;;30.20;50.20;;;;;;4971197;28;20455;-75
2022/05/10 11:31:06;;;;;;;17.47;16.67;;;30.60;51.30;;;;;;4901637;28;20806;-75
2022/05/10 11:33:44;;;;;;;18.10;17.20;;;31.60;49.00;;;;;;4975016;28;20483;-76
2022/05/10 11:36:23;;;;;;;16.90;16.20;;;32.20;48.30;;;;;;4974929;28;20447;-75
2022/05/10 11:39:15;;;;;;;16.60;15.90;;;33.10;47.00;;;;;;4974809;28;20575;-76
2022/05/10 11:41:49;;;;;;;16.03;15.33;;;32.20;46.90;;;;;;4974890;28;20444;-75
2022/05/10 11:44:54;;;;;;;16.50;15.90;;;31.60;48.00;;;;;;4974507;28;20487;-75
2022/05/10 11:47:52;;;;;;;17.50;16.60;;;32.40;47.40;;;;;;4973001;28;20781;-75
2022/05/10 11:51:38;;;;;;;17.10;16.40;;;32.20;48.20;;;;;;4974438;28;20474;-75
2022/05/10 11:53:51;;;;;;;17.60;16.67;;;32.60;46.50;;;;;;4974325;28;20432;-74
2022/05/10 11:56:18;;;;;;;16.30;15.50;;;33.20;45.00;;;;;;4974331;28;20454;-75
2022/05/10 11:58:46;;;;;;;17.37;16.53;;;33.30;44.40;;;;;;4974320;28;20455;-74
2022/05/10 12:01:35;;;;;;;17.10;16.20;;;33.00;44.70;;;;;;4974011;28;20997;-76
2022/05/10 12:04:01;;;;;;;14.50;13.80;;;33.20;44.70;;;;;;4973973;28;20895;-74
2022/05/10 12:06:43;;;;;;;18.17;17.07;;;33.50;44.60;;;;;;4974333;28;20464;-75
2022/05/10 12:09:17;;;;;;;16.50;15.80;;;33.50;43.70;;;;;;4974102;28;20518;-75
2022/05/10 12:11:44;;;;;;;17.43;16.73;;;33.40;44.60;;;;;;4974369;28;20498;-75
2022/05/10 12:22:59;;;;;;;16.30;15.50;;;33.70;43.10;;;;;;4974161;28;20478;-74
2022/05/10 12:25:54;;;;;;;16.23;15.53;;;34.10;42.70;;;;;;4973933;28;20458;-75
2022/05/10 12:28:40;;;;;;;17.10;16.17;;;33.80;42.90;;;;;;4973593;28;20886;-74
2022/05/10 12:31:51;;;;;;;16.13;15.33;;;34.30;41.70;;;;;;4973725;28;20483;-75
2022/05/10 12:37:41;;;;;;;17.00;16.23;;;34.10;42.00;;;;;;5108010;27;20515;-74
2022/05/10 12:40:20;;;;;;;15.53;14.83;;;33.40;42.80;;;;;;5107773;28;20446;-73
2022/05/10 12:43:03;;;;;;;14.87;14.27;;;33.90;42.20;;;;;;5107575;28;20502;-74
2022/05/10 12:45:36;;;;;;;16.47;15.77;;;33.40;41.70;;;;;;5108063;28;20805;-74
2022/05/10 12:48:08;;;;;;;16.10;15.50;;;33.30;42.50;;;;;;5107637;28;20868;-74
2022/05/10 12:50:49;;;;;;;15.67;14.97;;;33.50;42.10;;;;;;5107460;28;20536;-74
2022/05/10 12:53:25;;;;;;;16.33;15.43;;;33.40;42.10;;;;;;5107576;28;20816;-74
2022/05/10 12:56:00;;;;;;;15.97;15.27;;;33.20;43.00;;;;;;5107590;28;20485;-74
2022/05/10 12:58:31;;;;;;;15.53;14.93;;;33.00;42.30;;;;;;5107787;28;20449;-74
2022/05/10 13:01:01;;;;;;;15.80;15.20;;;33.00;42.40;;;;;;5107680;28;20465;-74
2022/05/10 13:03:34;;;;;;;15.30;14.70;;;33.70;42.00;;;;;;5107572;28;20489;-74
2022/05/10 13:06:16;;;;;;;16.50;15.80;;;33.60;42.40;;;;;;5107409;28;20810;-73
2022/05/10 13:09:07;;;;;;;17.20;16.50;;;34.00;41.60;;;;;;5107469;28;20452;-74
2022/05/10 13:11:42;;;;;;;16.17;15.47;;;34.90;41.30;;;;;;5107124;28;20446;-74
2022/05/10 13:14:09;;;;;;;16.00;15.40;;;35.40;39.60;;;;;;5106996;28;20449;-74
2022/05/10 13:16:36;;;;;;;15.73;14.93;;;35.40;39.50;;;;;;5107138;28;20926;-75
2022/05/10 13:19:04;;;;;;;15.93;15.17;;;35.50;39.20;;;;;;5106934;28;20485;-75
2022/05/10 13:21:31;;;;;;;16.50;15.80;;;35.10;39.40;;;;;;5107489;28;20445;-74
2022/05/10 13:24:09;;;;;;;15.17;14.67;;;34.90;39.80;;;;;;5108013;28;20461;-74
2022/05/10 13:26:35;;;;;;;16.17;15.37;;;34.30;39.90;;;;;;5107001;28;20438;-74
2022/05/10 13:29:09;;;;;;;15.77;15.07;;;34.40;40.20;;;;;;5087683;28;20963;-75
2022/05/10 13:31:37;;;;;;;15.37;14.67;;;34.60;39.30;;;;;;5106395;28;20455;-75
2022/05/10 13:34:13;;;;;;;17.00;16.20;;;34.40;39.50;;;;;;5106588;28;20453;-75
2022/05/10 13:36:46;;;;;;;15.57;14.97;;;34.00;39.90;;;;;;5106424;28;20484;-75
2022/05/10 13:39:17;;;;;;;16.13;15.53;;;33.70;40.90;;;;;;5106969;28;20457;-75
2022/05/10 13:41:45;;;;;;;16.23;15.43;;;33.70;40.50;;;;;;5107032;28;20476;-74
2022/05/10 13:44:17;;;;;;;16.10;15.40;;;33.00;41.90;;;;;;5106883;28;20449;-75
2022/05/10 13:46:47;;;;;;;16.73;16.03;;;33.00;41.60;;;;;;5103376;28;20449;-74
2022/05/10 13:49:19;;;;;;;16.20;15.50;;;32.60;42.10;;;;;;5093261;28;20450;-75
2022/05/10 13:51:49;;;;;;;16.03;15.40;;;32.30;41.90;;;;;;5093117;28;20461;-74
2022/05/10 13:54:25;;;;;;;15.73;15.03;;;31.60;43.00;;;;;;5093881;28;20457;-75
2022/05/10 13:56:52;;;;;;;16.83;16.00;;;31.00;43.70;;;;;;5092760;28;20517;-74
2022/05/10 13:59:35;;;;;;;15.60;15.00;;;31.10;44.00;;;;;;5093318;28;20477;-74
2022/05/10 14:02:04;;;;;;;16.23;15.23;;;31.00;44.20;;;;;;5096288;28;20561;-74
2022/05/10 14:04:31;;;;;;;15.77;15.07;;;31.70;43.70;;;;;;5095164;28;21015;-74
2022/05/10 14:07:01;;;;;;;15.77;15.07;;;32.40;43.40;;;;;;5094433;28;20439;-74
2022/05/10 14:09:36;;;;;;;16.97;16.17;;;33.20;42.50;;;;;;5106844;28;20450;-74
2022/05/10 14:12:05;;;;;;;17.40;16.60;;;33.30;41.50;;;;;;5108785;28;20991;-74
2022/05/10 14:14:33;;;;;;;17.00;16.30;;;33.80;42.10;;;;;;5109290;28;20809;-74
2022/05/10 14:17:00;;;;;;;16.73;15.93;;;34.10;40.90;;;;;;5099230;28;20486;-74
2022/05/10 14:19:33;;;;;;;16.23;15.53;;;33.30;41.20;;;;;;5092779;28;20454;-73
2022/05/10 14:22:04;;;;;;;15.17;14.57;;;33.20;41.70;;;;;;5092401;28;20450;-76
2022/05/10 14:24:34;;;;;;;17.40;16.30;;;32.80;42.10;;;;;;5092632;28;20450;-75
2022/05/10 14:27:10;;;;;;;16.70;15.70;;;32.20;42.70;;;;;;5092437;28;20474;-74
2022/05/10 14:29:42;;;;;;;15.97;15.27;;;31.90;43.40;;;;;;5091993;28;20468;-74
2022/05/10 14:32:12;;;;;;;15.40;14.70;;;31.70;43.30;;;;;;5092111;28;20478;-74
2022/05/10 14:34:50;;;;;;;16.90;15.90;;;31.50;44.10;;;;;;5091978;28;20485;-74
2022/05/10 14:37:19;;;;;;;16.63;15.73;;;31.50;44.40;;;;;;5091840;28;20493;-75
2022/05/10 14:39:47;;;;;;;16.10;15.40;;;30.90;44.50;;;;;;5092063;28;20446;-74
2022/05/10 14:42:25;;;;;;;15.37;14.67;;;30.40;45.60;;;;;;5092239;28;20849;-74
2022/05/10 14:44:53;;;;;;;16.70;15.90;;;29.60;46.60;;;;;;5090192;28;20458;-73
2022/05/10 14:50:43;;;;;;;16.13;15.23;;;28.70;48.60;;;;;;5091615;28;20444;-73
2022/05/10 14:53:12;;;;;;;15.93;15.23;;;28.80;48.90;;;;;;5091583;28;20454;-74
2022/05/10 14:55:42;;;;;;;16.20;15.50;;;29.20;48.70;;;;;;5091462;28;20478;-74
2022/05/10 14:58:11;;;;;;;16.20;15.50;;;29.30;48.60;;;;;;5091118;28;20450;-74
2022/05/10 15:00:40;;;;;;;16.37;15.57;;;29.20;48.90;;;;;;5090834;28;20501;-77
2022/05/10 15:03:10;;;;;;;17.00;16.30;;;29.20;49.20;;;;;;5091446;28;20452;-76
2022/05/10 15:08:59;;;;;;;16.40;15.70;;;28.90;49.30;;;;;;5091673;28;20409;-74
2022/05/10 15:11:27;;;;;;;17.00;16.30;;;29.00;49.90;;;;;;5091284;28;20453;-74
2022/05/10 15:13:55;;;;;;;17.40;16.40;;;29.10;50.40;;;;;;5091225;28;20450;-74
2022/05/10 15:16:22;;;;;;;17.80;16.90;;;29.40;50.50;;;;;;5091113;28;20846;-74
2022/05/10 15:19:01;;;;;;;18.10;17.20;;;29.40;50.70;;;;;;5090982;28;20931;-75
2022/05/10 15:21:30;;;;;;;16.90;16.10;;;29.60;50.50;;;;;;5091314;28;20450;-74
2022/05/10 15:23:58;;;;;;;17.17;16.17;;;29.80;50.10;;;;;;5091270;28;20443;-75
2022/05/10 15:26:29;;;;;;;16.63;15.83;;;29.40;50.90;;;;;;5090865;28;20451;-75
2022/05/10 15:28:56;;;;;;;17.30;16.50;;;29.50;50.40;;;;;;5091133;28;20507;-75
2022/05/10 15:31:24;;;;;;;17.43;16.63;;;29.50;51.00;;;;;;5090819;28;20465;-74
2022/05/10 15:33:52;;;;;;;17.10;16.30;;;29.30;51.30;;;;;;5090787;28;20465;-74
2022/05/10 15:36:19;;;;;;;17.10;16.07;;;29.20;52.30;;;;;;5090404;28;20493;-75
2022/05/10 15:38:46;;;;;;;16.43;15.63;;;29.20;52.20;;;;;;5091008;28;20442;-75
2022/05/10 15:41:13;;;;;;;15.97;15.23;;;29.10;52.40;;;;;;5090927;28;20450;-75
2022/05/10 15:43:42;;;;;;;17.67;16.47;;;29.20;52.60;;;;;;5090675;28;20445;-75
2022/05/10 15:46:13;;;;;;;17.97;16.97;;;29.20;51.90;;;;;;5090597;28;20516;-75
2022/05/10 15:48:40;;;;;;;17.83;16.83;;;29.00;52.20;;;;;;5090283;28;20478;-75
2022/05/10 15:51:07;;;;;;;16.60;15.80;;;28.80;52.90;;;;;;5090627;28;20450;-75
2022/05/10 15:53:36;;;;;;;17.77;16.87;;;28.80;52.70;;;;;;5090456;28;20468;-75
2022/05/10 15:56:05;;;;;;;16.77;15.97;;;29.00;52.50;;;;;;5090347;28;20573;-75
2022/05/10 15:58:32;;;;;;;18.13;17.20;;;28.80;53.10;;;;;;5090506;28;20457;-74
2022/05/10 16:01:00;;;;;;;17.10;16.20;;;28.70;53.90;;;;;;5090513;28;20498;-75
2022/05/10 16:03:27;;;;;;;16.20;15.30;;;28.70;54.10;;;;;;5090506;28;20458;-75
2022/05/10 16:05:54;;;;;;;17.57;16.67;;;28.60;54.20;;;;;;5090285;28;20657;-75
2022/05/10 16:08:21;;;;;;;16.40;15.60;;;28.40;55.00;;;;;;5090105;28;21221;-75
2022/05/10 16:10:48;;;;;;;17.50;16.40;;;28.20;55.40;;;;;;5089696;28;20458;-75
2022/05/10 16:13:16;;;;;;;17.70;16.83;;;28.00;55.50;;;;;;5090149;28;20442;-75
2022/05/10 16:15:43;;;;;;;17.30;16.20;;;28.00;56.20;;;;;;5090349;28;20469;-75